sensor_id;sensor_type;location;lat;lon;timestamp;P1;durP1;ratioP1;P2;durP2;ratioP2
11568;SDS011;5840;46.894;15.542;2022-11-15T00:02:19;128.70;;;55.80;;
11568;SDS011;5840;46.894;15.542;2022-11-15T00:04:46;69.10;;;47.70;;
11568;SDS011;5840;46.894;15.542;2022-11-15T00:07:13;80.47;;;47.47;;
11568;SDS011;5840;46.894;15.542;2022-11-15T00:09:40;59.37;;;43.90;;
11568;SDS011;5840;46.894;15.542;2022-11-15T00:12:08;111.80;;;51.17;;
11568;SDS011;5840;46.894;15.542;2022-11-15T00:14:35;202.40;;;53.30;;
11568;SDS011;5840;46.894;15.542;2022-11-15T00:17:02;105.83;;;47.23;;
11568;SDS011;5840;46.894;15.542;2022-11-15T00:19:29;126.23;;;46.03;;
11568;SDS011;5840;46.894;15.542;2022-11-15T00:21:56;63.37;;;46.37;;
11568;SDS011;5840;46.894;15.542;2022-11-15T00:24:23;123.30;;;56.37;;
11568;SDS011;5840;46.894;15.542;2022-11-15T00:26:50;77.07;;;50.63;;
11568;SDS011;5840;46.894;15.542;2022-11-15T00:29:19;91.83;;;49.90;;
11568;SDS011;5840;46.894;15.542;2022-11-15T00:31:46;113.80;;;46.77;;
11568;SDS011;5840;46.894;15.542;2022-11-15T00:34:13;148.40;;;49.00;;
11568;SDS011;5840;46.894;15.542;2022-11-15T00:36:40;67.77;;;43.07;;
11568;SDS011;5840;46.894;15.542;2022-11-15T00:39:07;53.40;;;41.23;;
11568;SDS011;5840;46.894;15.542;2022-11-15T00:41:34;65.87;;;43.13;;
11568;SDS011;5840;46.894;15.542;2022-11-15T00:44:01;151.90;;;44.80;;
11568;SDS011;5840;46.894;15.542;2022-11-15T00:46:30;273.03;;;51.80;;
11568;SDS011;5840;46.894;15.542;2022-11-15T00:48:57;154.43;;;49.77;;
11568;SDS011;5840;46.894;15.542;2022-11-15T00:51:24;69.10;;;45.57;;
11568;SDS011;5840;46.894;15.542;2022-11-15T00:53:51;70.93;;;44.83;;
11568;SDS011;5840;46.894;15.542;2022-11-15T00:56:18;245.37;;;47.97;;
11568;SDS011;5840;46.894;15.542;2022-11-15T00:58:46;364.83;;;55.23;;
11568;SDS011;5840;46.894;15.542;2022-11-15T01:01:13;126.43;;;48.63;;
11568;SDS011;5840;46.894;15.542;2022-11-15T01:03:42;107.80;;;44.77;;
11568;SDS011;5840;46.894;15.542;2022-11-15T01:06:09;120.17;;;44.33;;
11568;SDS011;5840;46.894;15.542;2022-11-15T01:08:37;155.57;;;48.17;;
11568;SDS011;5840;46.894;15.542;2022-11-15T01:11:06;177.53;;;49.73;;
11568;SDS011;5840;46.894;15.542;2022-11-15T01:13:35;99.33;;;47.07;;
11568;SDS011;5840;46.894;15.542;2022-11-15T01:16:06;142.37;;;42.93;;
11568;SDS011;5840;46.894;15.542;2022-11-15T01:18:34;143.83;;;47.67;;
11568;SDS011;5840;46.894;15.542;2022-11-15T01:21:05;67.10;;;39.37;;
11568;SDS011;5840;46.894;15.542;2022-11-15T01:23:33;78.80;;;38.17;;
11568;SDS011;5840;46.894;15.542;2022-11-15T01:26:00;108.17;;;40.93;;
11568;SDS011;5840;46.894;15.542;2022-11-15T01:28:29;402.33;;;64.10;;
11568;SDS011;5840;46.894;15.542;2022-11-15T01:30:57;190.83;;;42.67;;
11568;SDS011;5840;46.894;15.542;2022-11-15T01:33:25;42.07;;;33.50;;
11568;SDS011;5840;46.894;15.542;2022-11-15T01:35:52;62.73;;;36.00;;
11568;SDS011;5840;46.894;15.542;2022-11-15T01:38:20;61.90;;;39.50;;
11568;SDS011;5840;46.894;15.542;2022-11-15T01:40:47;71.57;;;38.53;;
11568;SDS011;5840;46.894;15.542;2022-11-15T01:43:18;225.23;;;45.03;;
11568;SDS011;5840;46.894;15.542;2022-11-15T01:45:46;117.43;;;40.47;;
11568;SDS011;5840;46.894;15.542;2022-11-15T01:48:18;164.17;;;44.63;;
11568;SDS011;5840;46.894;15.542;2022-11-15T01:50:46;99.63;;;40.67;;
11568;SDS011;5840;46.894;15.542;2022-11-15T01:53:13;99.53;;;39.67;;
11568;SDS011;5840;46.894;15.542;2022-11-15T01:55:42;72.00;;;37.80;;
11568;SDS011;5840;46.894;15.542;2022-11-15T01:58:09;46.87;;;36.60;;
11568;SDS011;5840;46.894;15.542;2022-11-15T02:00:36;66.17;;;36.57;;
11568;SDS011;5840;46.894;15.542;2022-11-15T02:03:03;59.37;;;37.33;;
11568;SDS011;5840;46.894;15.542;2022-11-15T02:05:30;52.67;;;38.33;;
11568;SDS011;5840;46.894;15.542;2022-11-15T02:07:57;88.50;;;39.17;;
11568;SDS011;5840;46.894;15.542;2022-11-15T02:10:26;111.10;;;38.07;;
11568;SDS011;5840;46.894;15.542;2022-11-15T02:12:55;51.60;;;37.80;;
11568;SDS011;5840;46.894;15.542;2022-11-15T02:15:26;107.07;;;42.07;;
11568;SDS011;5840;46.894;15.542;2022-11-15T02:18:05;94.03;;;38.60;;
11568;SDS011;5840;46.894;15.542;2022-11-15T02:26:52;157.63;;;40.77;;
11568;SDS011;5840;46.894;15.542;2022-11-15T02:29:58;43.77;;;36.77;;
11568;SDS011;5840;46.894;15.542;2022-11-15T02:32:33;82.20;;;35.70;;
11568;SDS011;5840;46.894;15.542;2022-11-15T02:35:06;45.50;;;36.53;;
11568;SDS011;5840;46.894;15.542;2022-11-15T02:37:43;47.80;;;37.13;;
11568;SDS011;5840;46.894;15.542;2022-11-15T02:40:16;62.13;;;42.27;;
11568;SDS011;5840;46.894;15.542;2022-11-15T02:42:53;54.53;;;37.97;;
11568;SDS011;5840;46.894;15.542;2022-11-15T02:45:40;49.67;;;38.87;;
11568;SDS011;5840;46.894;15.542;2022-11-15T02:48:12;43.63;;;34.87;;
11568;SDS011;5840;46.894;15.542;2022-11-15T02:50:41;49.47;;;39.03;;
11568;SDS011;5840;46.894;15.542;2022-11-15T02:53:10;53.00;;;39.17;;
11568;SDS011;5840;46.894;15.542;2022-11-15T02:55:37;45.53;;;38.03;;
11568;SDS011;5840;46.894;15.542;2022-11-15T02:58:16;44.13;;;36.97;;
11568;SDS011;5840;46.894;15.542;2022-11-15T03:01:03;56.83;;;39.93;;
11568;SDS011;5840;46.894;15.542;2022-11-15T03:03:45;48.10;;;37.10;;
11568;SDS011;5840;46.894;15.542;2022-11-15T03:06:25;74.53;;;38.50;;
11568;SDS011;5840;46.894;15.542;2022-11-15T03:09:02;110.93;;;39.67;;
11568;SDS011;5840;46.894;15.542;2022-11-15T03:11:34;71.77;;;38.03;;
11568;SDS011;5840;46.894;15.542;2022-11-15T03:14:07;137.53;;;46.87;;
11568;SDS011;5840;46.894;15.542;2022-11-15T03:16:42;219.43;;;46.70;;
11568;SDS011;5840;46.894;15.542;2022-11-15T03:19:16;84.23;;;38.93;;
11568;SDS011;5840;46.894;15.542;2022-11-15T03:21:48;93.23;;;40.10;;
11568;SDS011;5840;46.894;15.542;2022-11-15T03:24:17;61.43;;;39.87;;
11568;SDS011;5840;46.894;15.542;2022-11-15T03:26:47;49.23;;;36.27;;
11568;SDS011;5840;46.894;15.542;2022-11-15T03:29:16;86.03;;;41.23;;
11568;SDS011;5840;46.894;15.542;2022-11-15T03:31:50;104.37;;;40.80;;
11568;SDS011;5840;46.894;15.542;2022-11-15T03:34:25;84.50;;;39.67;;
11568;SDS011;5840;46.894;15.542;2022-11-15T03:36:54;66.17;;;36.17;;
11568;SDS011;5840;46.894;15.542;2022-11-15T03:39:21;86.20;;;38.63;;
11568;SDS011;5840;46.894;15.542;2022-11-15T03:41:51;202.30;;;40.03;;
11568;SDS011;5840;46.894;15.542;2022-11-15T03:44:26;211.13;;;43.47;;
11568;SDS011;5840;46.894;15.542;2022-11-15T03:47:03;117.47;;;38.97;;
11568;SDS011;5840;46.894;15.542;2022-11-15T03:49:36;165.83;;;40.57;;
11568;SDS011;5840;46.894;15.542;2022-11-15T03:52:09;201.97;;;44.80;;
11568;SDS011;5840;46.894;15.542;2022-11-15T03:54:36;94.47;;;37.20;;
11568;SDS011;5840;46.894;15.542;2022-11-15T03:57:13;58.67;;;37.37;;
11568;SDS011;5840;46.894;15.542;2022-11-15T03:59:40;62.60;;;39.33;;
11568;SDS011;5840;46.894;15.542;2022-11-15T04:02:07;102.43;;;40.70;;
11568;SDS011;5840;46.894;15.542;2022-11-15T04:04:35;61.87;;;37.13;;
11568;SDS011;5840;46.894;15.542;2022-11-15T04:07:02;47.07;;;35.37;;
11568;SDS011;5840;46.894;15.542;2022-11-15T04:09:29;69.03;;;40.20;;
11568;SDS011;5840;46.894;15.542;2022-11-15T04:11:56;50.13;;;37.50;;
11568;SDS011;5840;46.894;15.542;2022-11-15T04:14:23;45.50;;;35.90;;
11568;SDS011;5840;46.894;15.542;2022-11-15T04:16:50;45.37;;;35.00;;
11568;SDS011;5840;46.894;15.542;2022-11-15T04:19:17;63.33;;;38.70;;
11568;SDS011;5840;46.894;15.542;2022-11-15T04:22:03;47.70;;;38.13;;
11568;SDS011;5840;46.894;15.542;2022-11-15T04:24:47;44.00;;;35.00;;
11568;SDS011;5840;46.894;15.542;2022-11-15T04:27:14;49.30;;;34.33;;
11568;SDS011;5840;46.894;15.542;2022-11-15T04:29:41;75.70;;;37.30;;
11568;SDS011;5840;46.894;15.542;2022-11-15T04:32:08;43.47;;;35.00;;
11568;SDS011;5840;46.894;15.542;2022-11-15T04:34:35;45.77;;;35.33;;
11568;SDS011;5840;46.894;15.542;2022-11-15T04:37:04;44.70;;;35.87;;
11568;SDS011;5840;46.894;15.542;2022-11-15T04:39:41;65.20;;;37.73;;
11568;SDS011;5840;46.894;15.542;2022-11-15T04:42:09;59.33;;;39.20;;
11568;SDS011;5840;46.894;15.542;2022-11-15T04:44:36;45.63;;;36.20;;
11568;SDS011;5840;46.894;15.542;2022-11-15T04:47:03;43.63;;;35.57;;
11568;SDS011;5840;46.894;15.542;2022-11-15T04:49:30;201.53;;;40.80;;
11568;SDS011;5840;46.894;15.542;2022-11-15T04:51:57;73.70;;;37.33;;
11568;SDS011;5840;46.894;15.542;2022-11-15T04:54:26;55.20;;;34.33;;
11568;SDS011;5840;46.894;15.542;2022-11-15T04:56:53;56.63;;;34.93;;
11568;SDS011;5840;46.894;15.542;2022-11-15T04:59:20;48.07;;;33.83;;
11568;SDS011;5840;46.894;15.542;2022-11-15T05:01:47;42.10;;;34.17;;
11568;SDS011;5840;46.894;15.542;2022-11-15T05:04:13;52.57;;;38.80;;
11568;SDS011;5840;46.894;15.542;2022-11-15T05:06:46;58.03;;;36.53;;
11568;SDS011;5840;46.894;15.542;2022-11-15T05:09:13;79.73;;;35.90;;
11568;SDS011;5840;46.894;15.542;2022-11-15T05:11:42;42.57;;;35.00;;
11568;SDS011;5840;46.894;15.542;2022-11-15T05:14:09;48.67;;;36.23;;
11568;SDS011;5840;46.894;15.542;2022-11-15T05:16:36;74.57;;;40.80;;
11568;SDS011;5840;46.894;15.542;2022-11-15T05:19:03;56.13;;;39.37;;
11568;SDS011;5840;46.894;15.542;2022-11-15T05:21:31;78.27;;;40.87;;
11568;SDS011;5840;46.894;15.542;2022-11-15T05:23:59;66.87;;;37.00;;
11568;SDS011;5840;46.894;15.542;2022-11-15T05:26:26;95.53;;;38.80;;
11568;SDS011;5840;46.894;15.542;2022-11-15T05:28:55;196.13;;;47.10;;
11568;SDS011;5840;46.894;15.542;2022-11-15T05:31:23;109.07;;;39.97;;
11568;SDS011;5840;46.894;15.542;2022-11-15T05:33:52;88.47;;;39.20;;
11568;SDS011;5840;46.894;15.542;2022-11-15T05:36:24;151.20;;;44.17;;
11568;SDS011;5840;46.894;15.542;2022-11-15T05:38:55;78.97;;;39.93;;
11568;SDS011;5840;46.894;15.542;2022-11-15T05:41:24;213.37;;;47.57;;
11568;SDS011;5840;46.894;15.542;2022-11-15T05:43:57;270.33;;;52.10;;
11568;SDS011;5840;46.894;15.542;2022-11-15T05:46:26;147.37;;;43.63;;
11568;SDS011;5840;46.894;15.542;2022-11-15T05:48:53;59.83;;;40.50;;
11568;SDS011;5840;46.894;15.542;2022-11-15T05:51:21;130.23;;;42.83;;
11568;SDS011;5840;46.894;15.542;2022-11-15T05:53:49;170.63;;;46.77;;
11568;SDS011;5840;46.894;15.542;2022-11-15T05:56:18;69.17;;;40.97;;
11568;SDS011;5840;46.894;15.542;2022-11-15T05:58:45;170.20;;;43.20;;
11568;SDS011;5840;46.894;15.542;2022-11-15T06:01:14;93.80;;;43.63;;
11568;SDS011;5840;46.894;15.542;2022-11-15T06:03:40;63.50;;;37.07;;
11568;SDS011;5840;46.894;15.542;2022-11-15T06:06:07;125.27;;;40.77;;
11568;SDS011;5840;46.894;15.542;2022-11-15T06:08:34;65.20;;;36.23;;
11568;SDS011;5840;46.894;15.542;2022-11-15T06:11:03;104.87;;;39.77;;
11568;SDS011;5840;46.894;15.542;2022-11-15T06:13:30;348.00;;;59.50;;
11568;SDS011;5840;46.894;15.542;2022-11-15T06:15:58;683.43;;;88.33;;
11568;SDS011;5840;46.894;15.542;2022-11-15T06:18:26;410.50;;;56.73;;
11568;SDS011;5840;46.894;15.542;2022-11-15T06:20:53;194.00;;;44.03;;
11568;SDS011;5840;46.894;15.542;2022-11-15T06:23:20;139.73;;;45.33;;
11568;SDS011;5840;46.894;15.542;2022-11-15T06:25:47;652.70;;;90.13;;
11568;SDS011;5840;46.894;15.542;2022-11-15T06:28:14;478.57;;;69.97;;
11568;SDS011;5840;46.894;15.542;2022-11-15T06:30:41;557.00;;;66.93;;
11568;SDS011;5840;46.894;15.542;2022-11-15T06:33:08;333.73;;;50.77;;
11568;SDS011;5840;46.894;15.542;2022-11-15T06:35:36;425.57;;;60.80;;
11568;SDS011;5840;46.894;15.542;2022-11-15T06:38:04;446.93;;;62.40;;
11568;SDS011;5840;46.894;15.542;2022-11-15T06:40:33;136.97;;;38.30;;
11568;SDS011;5840;46.894;15.542;2022-11-15T06:43:01;196.73;;;46.00;;
11568;SDS011;5840;46.894;15.542;2022-11-15T06:45:29;408.47;;;54.27;;
11568;SDS011;5840;46.894;15.542;2022-11-15T06:47:56;657.77;;;82.33;;
11568;SDS011;5840;46.894;15.542;2022-11-15T06:50:23;267.70;;;51.47;;
11568;SDS011;5840;46.894;15.542;2022-11-15T06:52:52;120.23;;;39.90;;
11568;SDS011;5840;46.894;15.542;2022-11-15T06:55:19;361.53;;;56.10;;
11568;SDS011;5840;46.894;15.542;2022-11-15T06:57:46;603.07;;;81.27;;
11568;SDS011;5840;46.894;15.542;2022-11-15T07:00:14;749.53;;;91.63;;
11568;SDS011;5840;46.894;15.542;2022-11-15T07:02:42;458.77;;;64.67;;
11568;SDS011;5840;46.894;15.542;2022-11-15T07:05:10;177.27;;;44.40;;
11568;SDS011;5840;46.894;15.542;2022-11-15T07:07:37;70.33;;;34.87;;
11568;SDS011;5840;46.894;15.542;2022-11-15T07:10:06;214.33;;;47.77;;
11568;SDS011;5840;46.894;15.542;2022-11-15T07:12:34;363.90;;;50.90;;
11568;SDS011;5840;46.894;15.542;2022-11-15T07:15:01;231.70;;;44.57;;
11568;SDS011;5840;46.894;15.542;2022-11-15T07:17:28;483.63;;;66.83;;
11568;SDS011;5840;46.894;15.542;2022-11-15T07:19:54;953.10;;;106.30;;
11568;SDS011;5840;46.894;15.542;2022-11-15T07:22:21;409.03;;;60.27;;
11568;SDS011;5840;46.894;15.542;2022-11-15T07:24:48;409.10;;;60.30;;
11568;SDS011;5840;46.894;15.542;2022-11-15T07:27:17;231.97;;;46.63;;
11568;SDS011;5840;46.894;15.542;2022-11-15T07:29:43;395.90;;;48.10;;
11568;SDS011;5840;46.894;15.542;2022-11-15T07:32:10;578.73;;;75.10;;
11568;SDS011;5840;46.894;15.542;2022-11-15T07:34:37;561.90;;;75.30;;
11568;SDS011;5840;46.894;15.542;2022-11-15T07:37:04;787.30;;;96.97;;
11568;SDS011;5840;46.894;15.542;2022-11-15T07:39:31;586.10;;;82.23;;
11568;SDS011;5840;46.894;15.542;2022-11-15T07:41:58;282.97;;;49.60;;
11568;SDS011;5840;46.894;15.542;2022-11-15T07:44:40;298.20;;;54.77;;
11568;SDS011;5840;46.894;15.542;2022-11-15T07:47:07;393.37;;;56.47;;
11568;SDS011;5840;46.894;15.542;2022-11-15T07:49:34;745.73;;;89.73;;
11568;SDS011;5840;46.894;15.542;2022-11-15T07:52:01;750.23;;;97.37;;
11568;SDS011;5840;46.894;15.542;2022-11-15T07:54:28;835.43;;;100.37;;
11568;SDS011;5840;46.894;15.542;2022-11-15T07:56:55;646.97;;;81.47;;
11568;SDS011;5840;46.894;15.542;2022-11-15T07:59:22;874.27;;;101.50;;
11568;SDS011;5840;46.894;15.542;2022-11-15T08:01:50;424.57;;;65.27;;
11568;SDS011;5840;46.894;15.542;2022-11-15T08:04:17;802.17;;;97.37;;
11568;SDS011;5840;46.894;15.542;2022-11-15T08:06:44;453.77;;;62.27;;
11568;SDS011;5840;46.894;15.542;2022-11-15T08:09:11;185.33;;;42.97;;
11568;SDS011;5840;46.894;15.542;2022-11-15T08:11:38;235.23;;;47.83;;
11568;SDS011;5840;46.894;15.542;2022-11-15T08:14:05;114.33;;;37.23;;
11568;SDS011;5840;46.894;15.542;2022-11-15T08:16:32;156.87;;;38.43;;
11568;SDS011;5840;46.894;15.542;2022-11-15T08:19:00;215.30;;;42.20;;
11568;SDS011;5840;46.894;15.542;2022-11-15T08:21:27;479.10;;;69.47;;
11568;SDS011;5840;46.894;15.542;2022-11-15T08:23:54;252.57;;;41.07;;
11568;SDS011;5840;46.894;15.542;2022-11-15T08:26:21;142.00;;;39.03;;
11568;SDS011;5840;46.894;15.542;2022-11-15T08:28:49;249.53;;;49.77;;
11568;SDS011;5840;46.894;15.542;2022-11-15T08:31:17;164.30;;;38.30;;
11568;SDS011;5840;46.894;15.542;2022-11-15T08:33:45;333.90;;;51.97;;
11568;SDS011;5840;46.894;15.542;2022-11-15T08:36:15;166.43;;;46.17;;
11568;SDS011;5840;46.894;15.542;2022-11-15T08:38:43;81.33;;;35.73;;
11568;SDS011;5840;46.894;15.542;2022-11-15T08:41:11;72.23;;;36.50;;
11568;SDS011;5840;46.894;15.542;2022-11-15T08:43:40;110.37;;;37.53;;
11568;SDS011;5840;46.894;15.542;2022-11-15T08:46:07;111.03;;;35.57;;
11568;SDS011;5840;46.894;15.542;2022-11-15T08:48:38;128.17;;;37.93;;
11568;SDS011;5840;46.894;15.542;2022-11-15T08:51:05;116.87;;;33.47;;
11568;SDS011;5840;46.894;15.542;2022-11-15T08:53:33;122.87;;;36.20;;
11568;SDS011;5840;46.894;15.542;2022-11-15T08:56:00;87.33;;;34.50;;
11568;SDS011;5840;46.894;15.542;2022-11-15T08:58:28;74.10;;;35.63;;
11568;SDS011;5840;46.894;15.542;2022-11-15T09:00:54;43.93;;;31.13;;
11568;SDS011;5840;46.894;15.542;2022-11-15T09:03:21;128.80;;;33.13;;
11568;SDS011;5840;46.894;15.542;2022-11-15T09:05:49;80.50;;;33.07;;
11568;SDS011;5840;46.894;15.542;2022-11-15T09:08:20;327.50;;;55.27;;
11568;SDS011;5840;46.894;15.542;2022-11-15T09:10:49;218.77;;;43.00;;
11568;SDS011;5840;46.894;15.542;2022-11-15T09:13:16;208.27;;;38.30;;
11568;SDS011;5840;46.894;15.542;2022-11-15T09:15:43;132.97;;;39.07;;
11568;SDS011;5840;46.894;15.542;2022-11-15T09:18:10;68.97;;;33.00;;
11568;SDS011;5840;46.894;15.542;2022-11-15T09:20:37;56.23;;;31.60;;
11568;SDS011;5840;46.894;15.542;2022-11-15T09:23:04;47.20;;;32.23;;
11568;SDS011;5840;46.894;15.542;2022-11-15T09:25:31;126.10;;;32.50;;
11568;SDS011;5840;46.894;15.542;2022-11-15T09:28:00;145.93;;;36.80;;
11568;SDS011;5840;46.894;15.542;2022-11-15T09:30:31;136.37;;;36.63;;
11568;SDS011;5840;46.894;15.542;2022-11-15T09:32:58;67.80;;;35.13;;
11568;SDS011;5840;46.894;15.542;2022-11-15T09:35:31;157.73;;;38.43;;
11568;SDS011;5840;46.894;15.542;2022-11-15T09:37:58;180.87;;;37.90;;
11568;SDS011;5840;46.894;15.542;2022-11-15T09:40:25;281.00;;;41.60;;
11568;SDS011;5840;46.894;15.542;2022-11-15T09:42:58;226.20;;;43.83;;
11568;SDS011;5840;46.894;15.542;2022-11-15T09:45:34;245.33;;;46.73;;
11568;SDS011;5840;46.894;15.542;2022-11-15T09:48:20;99.80;;;38.33;;
11568;SDS011;5840;46.894;15.542;2022-11-15T09:50:59;193.00;;;41.83;;
11568;SDS011;5840;46.894;15.542;2022-11-15T09:53:29;57.40;;;35.07;;
11568;SDS011;5840;46.894;15.542;2022-11-15T09:56:01;55.20;;;35.57;;
11568;SDS011;5840;46.894;15.542;2022-11-15T09:58:33;56.07;;;34.60;;
11568;SDS011;5840;46.894;15.542;2022-11-15T10:01:07;57.70;;;36.60;;
11568;SDS011;5840;46.894;15.542;2022-11-15T10:03:40;54.37;;;34.43;;
11568;SDS011;5840;46.894;15.542;2022-11-15T10:06:08;46.43;;;34.97;;
11568;SDS011;5840;46.894;15.542;2022-11-15T10:08:45;44.90;;;34.17;;
11568;SDS011;5840;46.894;15.542;2022-11-15T10:11:18;36.77;;;30.07;;
11568;SDS011;5840;46.894;15.542;2022-11-15T10:13:50;39.10;;;31.10;;
11568;SDS011;5840;46.894;15.542;2022-11-15T10:19:23;40.17;;;32.63;;
11568;SDS011;5840;46.894;15.542;2022-11-15T10:22:00;41.40;;;32.13;;
11568;SDS011;5840;46.894;15.542;2022-11-15T10:24:49;37.30;;;29.93;;
11568;SDS011;5840;46.894;15.542;2022-11-15T10:27:18;35.60;;;30.00;;
11568;SDS011;5840;46.894;15.542;2022-11-15T10:29:48;39.50;;;31.37;;
11568;SDS011;5840;46.894;15.542;2022-11-15T10:32:16;36.27;;;31.33;;
11568;SDS011;5840;46.894;15.542;2022-11-15T10:34:45;37.77;;;31.50;;
11568;SDS011;5840;46.894;15.542;2022-11-15T10:37:12;39.53;;;32.20;;
11568;SDS011;5840;46.894;15.542;2022-11-15T10:39:39;35.93;;;29.03;;
11568;SDS011;5840;46.894;15.542;2022-11-15T10:42:16;33.57;;;28.60;;
11568;SDS011;5840;46.894;15.542;2022-11-15T10:44:54;33.93;;;27.53;;
11568;SDS011;5840;46.894;15.542;2022-11-15T10:47:26;33.30;;;28.40;;
11568;SDS011;5840;46.894;15.542;2022-11-15T10:49:57;29.63;;;26.43;;
11568;SDS011;5840;46.894;15.542;2022-11-15T10:52:25;28.13;;;25.00;;
11568;SDS011;5840;46.894;15.542;2022-11-15T10:54:55;30.00;;;26.33;;
11568;SDS011;5840;46.894;15.542;2022-11-15T10:57:28;29.03;;;26.00;;
11568;SDS011;5840;46.894;15.542;2022-11-15T11:00:00;29.40;;;25.80;;
11568;SDS011;5840;46.894;15.542;2022-11-15T11:02:31;29.93;;;26.73;;
11568;SDS011;5840;46.894;15.542;2022-11-15T11:05:00;28.27;;;25.23;;
11568;SDS011;5840;46.894;15.542;2022-11-15T11:07:30;26.77;;;23.93;;
11568;SDS011;5840;46.894;15.542;2022-11-15T11:09:59;27.90;;;25.03;;
11568;SDS011;5840;46.894;15.542;2022-11-15T11:12:42;31.07;;;26.67;;
11568;SDS011;5840;46.894;15.542;2022-11-15T11:15:12;27.80;;;24.87;;
11568;SDS011;5840;46.894;15.542;2022-11-15T11:17:48;28.07;;;25.23;;
11568;SDS011;5840;46.894;15.542;2022-11-15T11:20:24;27.03;;;24.33;;
11568;SDS011;5840;46.894;15.542;2022-11-15T11:23:00;26.17;;;23.57;;
11568;SDS011;5840;46.894;15.542;2022-11-15T11:25:43;27.50;;;24.70;;
11568;SDS011;5840;46.894;15.542;2022-11-15T11:28:21;25.63;;;23.03;;
11568;SDS011;5840;46.894;15.542;2022-11-15T11:31:06;26.10;;;23.40;;
11568;SDS011;5840;46.894;15.542;2022-11-15T11:33:54;25.83;;;23.13;;
11568;SDS011;5840;46.894;15.542;2022-11-15T11:36:32;26.70;;;23.93;;
11568;SDS011;5840;46.894;15.542;2022-11-15T11:39:09;26.03;;;23.33;;
11568;SDS011;5840;46.894;15.542;2022-11-15T11:41:55;27.53;;;24.83;;
11568;SDS011;5840;46.894;15.542;2022-11-15T11:44:34;26.40;;;23.70;;
11568;SDS011;5840;46.894;15.542;2022-11-15T11:47:16;26.87;;;24.17;;
11568;SDS011;5840;46.894;15.542;2022-11-15T11:49:49;26.20;;;23.50;;
11568;SDS011;5840;46.894;15.542;2022-11-15T11:52:20;26.00;;;23.23;;
11568;SDS011;5840;46.894;15.542;2022-11-15T11:54:57;26.87;;;23.97;;
11568;SDS011;5840;46.894;15.542;2022-11-15T11:57:31;25.97;;;23.17;;
11568;SDS011;5840;46.894;15.542;2022-11-15T12:00:04;25.67;;;22.93;;
11568;SDS011;5840;46.894;15.542;2022-11-15T12:02:44;26.13;;;23.43;;
11568;SDS011;5840;46.894;15.542;2022-11-15T12:05:18;27.43;;;24.27;;
11568;SDS011;5840;46.894;15.542;2022-11-15T12:07:49;26.67;;;23.83;;
11568;SDS011;5840;46.894;15.542;2022-11-15T12:10:21;26.03;;;23.03;;
11568;SDS011;5840;46.894;15.542;2022-11-15T12:12:52;24.80;;;22.20;;
11568;SDS011;5840;46.894;15.542;2022-11-15T12:15:23;25.37;;;22.80;;
11568;SDS011;5840;46.894;15.542;2022-11-15T12:17:55;25.47;;;22.77;;
11568;SDS011;5840;46.894;15.542;2022-11-15T12:20:24;28.10;;;25.07;;
11568;SDS011;5840;46.894;15.542;2022-11-15T12:22:55;27.57;;;24.67;;
11568;SDS011;5840;46.894;15.542;2022-11-15T12:25:27;26.27;;;23.50;;
11568;SDS011;5840;46.894;15.542;2022-11-15T12:27:58;28.97;;;25.87;;
11568;SDS011;5840;46.894;15.542;2022-11-15T12:30:37;28.20;;;24.07;;
11568;SDS011;5840;46.894;15.542;2022-11-15T12:35:58;28.80;;;24.40;;
11568;SDS011;5840;46.894;15.542;2022-11-15T12:41:22;29.73;;;25.60;;
11568;SDS011;5840;46.894;15.542;2022-11-15T12:43:50;27.80;;;24.90;;
11568;SDS011;5840;46.894;15.542;2022-11-15T12:46:21;27.63;;;24.70;;
11568;SDS011;5840;46.894;15.542;2022-11-15T12:49:11;27.70;;;24.57;;
11568;SDS011;5840;46.894;15.542;2022-11-15T12:52:06;28.80;;;25.70;;
11568;SDS011;5840;46.894;15.542;2022-11-15T12:54:54;28.70;;;25.70;;
11568;SDS011;5840;46.894;15.542;2022-11-15T12:57:31;29.77;;;25.43;;
11568;SDS011;5840;46.894;15.542;2022-11-15T13:03:19;31.07;;;26.20;;
11568;SDS011;5840;46.894;15.542;2022-11-15T13:05:55;28.07;;;24.87;;
11568;SDS011;5840;46.894;15.542;2022-11-15T13:08:42;27.07;;;23.87;;
11568;SDS011;5840;46.894;15.542;2022-11-15T13:17:12;27.00;;;24.10;;
11568;SDS011;5840;46.894;15.542;2022-11-15T13:19:54;26.57;;;23.77;;
11568;SDS011;5840;46.894;15.542;2022-11-15T13:22:27;28.13;;;24.20;;
11568;SDS011;5840;46.894;15.542;2022-11-15T13:25:26;26.17;;;23.47;;
11568;SDS011;5840;46.894;15.542;2022-11-15T13:28:09;26.37;;;23.57;;
11568;SDS011;5840;46.894;15.542;2022-11-15T13:30:48;27.60;;;24.63;;
11568;SDS011;5840;46.894;15.542;2022-11-15T13:33:17;27.10;;;24.20;;
11568;SDS011;5840;46.894;15.542;2022-11-15T13:35:47;27.77;;;24.77;;
11568;SDS011;5840;46.894;15.542;2022-11-15T13:38:19;26.27;;;22.67;;
11568;SDS011;5840;46.894;15.542;2022-11-15T13:40:52;25.60;;;22.33;;
11568;SDS011;5840;46.894;15.542;2022-11-15T13:43:25;25.27;;;22.67;;
11568;SDS011;5840;46.894;15.542;2022-11-15T13:46:07;25.47;;;22.60;;
11568;SDS011;5840;46.894;15.542;2022-11-15T13:48:39;24.83;;;22.23;;
11568;SDS011;5840;46.894;15.542;2022-11-15T13:51:08;25.60;;;22.93;;
11568;SDS011;5840;46.894;15.542;2022-11-15T13:53:44;23.43;;;21.03;;
11568;SDS011;5840;46.894;15.542;2022-11-15T13:56:14;23.70;;;21.03;;
11568;SDS011;5840;46.894;15.542;2022-11-15T13:58:43;22.87;;;20.50;;
11568;SDS011;5840;46.894;15.542;2022-11-15T14:01:13;24.60;;;20.97;;
11568;SDS011;5840;46.894;15.542;2022-11-15T14:03:47;23.67;;;21.17;;
11568;SDS011;5840;46.894;15.542;2022-11-15T14:06:20;22.43;;;20.07;;
11568;SDS011;5840;46.894;15.542;2022-11-15T14:09:18;22.20;;;19.80;;
11568;SDS011;5840;46.894;15.542;2022-11-15T14:11:59;21.83;;;19.63;;
11568;SDS011;5840;46.894;15.542;2022-11-15T14:14:28;20.83;;;18.73;;
11568;SDS011;5840;46.894;15.542;2022-11-15T14:16:59;21.57;;;19.40;;
11568;SDS011;5840;46.894;15.542;2022-11-15T14:19:33;20.23;;;18.27;;
11568;SDS011;5840;46.894;15.542;2022-11-15T14:22:13;20.10;;;18.07;;
11568;SDS011;5840;46.894;15.542;2022-11-15T14:24:43;20.47;;;18.37;;
11568;SDS011;5840;46.894;15.542;2022-11-15T14:27:16;19.83;;;17.83;;
11568;SDS011;5840;46.894;15.542;2022-11-15T14:29:49;20.87;;;18.67;;
11568;SDS011;5840;46.894;15.542;2022-11-15T14:32:17;21.00;;;18.80;;
11568;SDS011;5840;46.894;15.542;2022-11-15T14:34:46;20.80;;;18.63;;
11568;SDS011;5840;46.894;15.542;2022-11-15T14:37:24;20.20;;;18.30;;
11568;SDS011;5840;46.894;15.542;2022-11-15T14:39:53;20.60;;;18.50;;
11568;SDS011;5840;46.894;15.542;2022-11-15T14:42:21;18.60;;;16.80;;
11568;SDS011;5840;46.894;15.542;2022-11-15T14:44:49;20.03;;;18.00;;
11568;SDS011;5840;46.894;15.542;2022-11-15T14:47:17;21.20;;;19.03;;
11568;SDS011;5840;46.894;15.542;2022-11-15T14:49:44;21.27;;;19.23;;
11568;SDS011;5840;46.894;15.542;2022-11-15T14:52:17;21.13;;;19.00;;
11568;SDS011;5840;46.894;15.542;2022-11-15T14:54:50;22.23;;;20.03;;
11568;SDS011;5840;46.894;15.542;2022-11-15T14:57:19;22.13;;;19.53;;
11568;SDS011;5840;46.894;15.542;2022-11-15T14:59:46;21.23;;;19.03;;
11568;SDS011;5840;46.894;15.542;2022-11-15T15:02:14;22.10;;;19.77;;